createdAt,value
2018-08-11T00:00:48.031Z,19.45
2018-08-11T00:01:48.025Z,19.51
2018-08-11T00:02:48.056Z,19.52
2018-08-11T00:03:48.245Z,19.51
2018-08-11T00:04:48.054Z,19.52
2018-08-11T00:05:48.275Z,19.55
2018-08-11T00:06:48.045Z,19.45
2018-08-11T00:07:48.048Z,19.41
2018-08-11T00:08:48.053Z,19.39
2018-08-11T00:09:48.058Z,19.44
2018-08-11T00:10:48.063Z,19.52
2018-08-11T00:11:48.069Z,19.45
2018-08-11T00:12:48.070Z,19.54
2018-08-11T00:13:48.293Z,19.40
2018-08-11T00:14:48.083Z,19.34
2018-08-11T00:15:48.087Z,19.37
2018-08-11T00:16:48.090Z,19.44
2018-08-11T00:17:48.093Z,19.40
2018-08-11T00:18:48.112Z,19.40
2018-08-11T00:19:48.113Z,19.39
2018-08-11T00:20:48.309Z,19.36
2018-08-11T00:21:48.137Z,19.44
2018-08-11T00:22:48.125Z,19.44
2018-08-11T00:23:48.117Z,19.48
2018-08-11T00:24:48.123Z,19.39
2018-08-11T00:25:48.128Z,19.44
2018-08-11T00:26:48.133Z,19.41
2018-08-11T00:27:48.169Z,19.54
2018-08-11T00:28:48.144Z,19.37
2018-08-11T00:29:48.148Z,19.39
2018-08-11T00:30:48.351Z,19.37
2018-08-11T00:31:48.165Z,19.37
2018-08-11T00:32:48.169Z,19.36
2018-08-11T00:33:48.163Z,19.36
2018-08-11T00:34:48.168Z,19.27
2018-08-11T00:35:48.171Z,19.30
2018-08-11T00:36:48.378Z,19.26
2018-08-11T00:37:48.179Z,19.29
2018-08-11T00:38:48.205Z,19.26
2018-08-11T00:39:48.187Z,19.22
2018-08-11T00:40:48.393Z,19.22
2018-08-11T00:41:48.401Z,19.26
2018-08-11T00:42:48.404Z,19.18
2018-08-11T00:43:48.233Z,19.29
2018-08-11T00:44:48.410Z,19.26
2018-08-11T00:45:48.219Z,19.29
2018-08-11T00:46:48.221Z,19.21
2018-08-11T00:47:48.441Z,19.19
2018-08-11T00:48:48.429Z,19.26
2018-08-11T00:49:48.231Z,19.22
2018-08-11T00:50:48.235Z,19.27
2018-08-11T00:51:48.249Z,19.27
2018-08-11T00:52:48.245Z,19.26
2018-08-11T00:53:48.451Z,19.26
2018-08-11T00:54:48.453Z,19.19
2018-08-11T00:55:48.256Z,19.24
2018-08-11T00:56:48.267Z,19.18
2018-08-11T00:57:48.261Z,19.18
2018-08-11T00:58:48.268Z,19.16
2018-08-11T00:59:48.273Z,19.09
2018-08-11T01:00:48.475Z,19.12
2018-08-11T01:01:48.278Z,19.12
2018-08-11T01:02:48.300Z,19.07
2018-08-11T01:03:48.289Z,18.95
2018-08-11T01:04:48.527Z,18.84
2018-08-11T01:05:48.295Z,18.73
2018-08-11T01:06:48.499Z,18.75
2018-08-11T01:07:48.300Z,18.68
2018-08-11T01:08:48.303Z,18.62
2018-08-11T01:09:48.320Z,18.55
2018-08-11T01:10:48.333Z,18.44
2018-08-11T01:11:48.318Z,18.40
2018-08-11T01:12:48.520Z,18.33
2018-08-11T01:13:48.322Z,18.23
2018-08-11T01:14:48.327Z,18.31
2018-08-11T01:15:48.326Z,18.33
2018-08-11T01:16:48.343Z,18.26
2018-08-11T01:17:48.550Z,18.20
2018-08-11T01:18:48.353Z,18.10
2018-08-11T01:19:48.349Z,17.98
2018-08-11T01:20:48.543Z,17.97
2018-08-11T01:21:48.374Z,17.92
2018-08-11T01:22:48.350Z,17.89
2018-08-11T01:23:48.362Z,17.79
2018-08-11T01:24:48.353Z,17.83
2018-08-11T01:25:48.354Z,17.79
2018-08-11T01:26:48.573Z,17.70
2018-08-11T01:27:48.561Z,17.70
2018-08-11T01:28:48.361Z,17.52
2018-08-11T01:29:48.364Z,17.51
2018-08-11T01:30:48.568Z,17.39
2018-08-11T01:31:48.378Z,17.27
2018-08-11T01:32:48.584Z,17.22
2018-08-11T01:33:48.575Z,17.31
2018-08-11T01:34:48.577Z,17.29
2018-08-11T01:35:48.374Z,17.27
2018-08-11T01:36:48.610Z,17.26
2018-08-11T01:37:48.596Z,17.20
2018-08-11T01:38:48.382Z,17.09
2018-08-11T01:39:48.382Z,17.05
2018-08-11T01:40:48.585Z,16.94
2018-08-11T01:41:48.588Z,16.84
2018-08-11T01:42:48.389Z,16.83
2018-08-11T01:43:48.399Z,16.81
2018-08-11T01:44:48.392Z,16.79
2018-08-11T01:45:48.405Z,16.76
2018-08-11T01:46:48.609Z,16.76
2018-08-11T01:47:48.615Z,16.61
2018-08-11T01:48:48.430Z,16.43
2018-08-11T01:49:48.413Z,16.43
2018-08-11T01:50:48.618Z,16.41
2018-08-11T01:51:48.404Z,16.29
2018-08-11T01:52:48.620Z,16.24
2018-08-11T01:53:48.609Z,16.21
2018-08-11T01:54:48.408Z,16.23
2018-08-11T01:55:48.437Z,16.12
2018-08-11T01:56:48.615Z,16.15
2018-08-11T01:57:48.413Z,16.15
2018-08-11T01:58:48.416Z,15.98
2018-08-11T01:59:48.618Z,15.94
2018-08-11T02:00:48.419Z,15.86
2018-08-11T02:01:48.445Z,15.94
2018-08-11T02:02:48.632Z,15.92
2018-08-11T02:03:48.638Z,15.92
2018-08-11T02:04:48.626Z,15.90
2018-08-11T02:05:48.636Z,15.95
2018-08-11T02:06:48.628Z,15.86
2018-08-11T02:07:48.643Z,15.90
2018-08-11T02:08:48.451Z,15.94
2018-08-11T02:09:48.441Z,15.90
2018-08-11T02:10:48.633Z,15.92
2018-08-11T02:11:48.432Z,15.98
2018-08-11T02:12:48.446Z,15.98
2018-08-11T02:13:48.638Z,15.90
2018-08-11T02:14:48.641Z,16.00
2018-08-11T02:15:48.656Z,15.94
2018-08-11T02:16:48.455Z,15.95
2018-08-11T02:17:48.658Z,16.05
2018-08-11T02:18:48.455Z,16.01
2018-08-11T02:19:48.647Z,16.01
2018-08-11T02:20:48.648Z,15.98
2018-08-11T02:21:48.451Z,16.09
2018-08-11T02:22:48.451Z,16.10
2018-08-11T02:23:48.453Z,16.15
2018-08-11T02:24:48.773Z,16.12
2018-08-11T02:25:48.468Z,16.10
2018-08-11T02:26:48.459Z,16.05
2018-08-11T02:27:48.661Z,16.09
2018-08-11T02:28:48.471Z,16.09
2018-08-11T02:29:48.463Z,16.12
2018-08-11T02:30:48.468Z,16.10
2018-08-11T02:31:48.467Z,16.17
2018-08-11T02:32:48.481Z,16.31
2018-08-11T02:33:48.473Z,16.28
2018-08-11T02:34:48.476Z,16.31
2018-08-11T02:35:48.687Z,16.33
2018-08-11T02:36:48.488Z,16.35
2018-08-11T02:37:48.490Z,16.46
2018-08-11T02:38:48.481Z,16.47
2018-08-11T02:39:48.482Z,16.56
2018-08-11T02:40:48.687Z,16.54
2018-08-11T02:41:48.498Z,16.57
2018-08-11T02:42:48.500Z,16.64
2018-08-11T02:43:48.495Z,16.58
2018-08-11T02:44:48.494Z,16.57
2018-08-11T02:45:48.494Z,16.58
2018-08-11T02:46:48.498Z,16.57
2018-08-11T02:47:48.717Z,16.58
2018-08-11T02:48:48.504Z,16.66
2018-08-11T02:49:48.515Z,16.75
2018-08-11T02:50:48.710Z,16.81
2018-08-11T02:51:48.507Z,16.76
2018-08-11T02:52:48.724Z,16.75
2018-08-11T02:53:48.523Z,16.74
2018-08-11T02:54:48.717Z,16.83
2018-08-11T02:55:48.518Z,16.81
2018-08-11T02:56:48.520Z,16.81
2018-08-11T02:57:48.535Z,16.76
2018-08-11T02:58:48.740Z,16.72
2018-08-11T02:59:48.528Z,16.72
2018-08-11T03:00:48.542Z,16.58
2018-08-11T03:01:48.549Z,16.56
2018-08-11T03:02:48.738Z,16.42
2018-08-11T03:03:48.537Z,16.39
2018-08-11T03:04:48.539Z,16.24
2018-08-11T03:05:48.542Z,16.02
2018-08-11T03:06:48.769Z,16.04
2018-08-11T03:07:48.750Z,15.94
2018-08-11T03:08:48.549Z,15.88
2018-08-11T03:09:48.561Z,15.84
2018-08-11T03:10:48.553Z,15.73
2018-08-11T03:11:48.579Z,15.77
2018-08-11T03:12:48.759Z,15.76
2018-08-11T03:13:48.761Z,15.84
2018-08-11T03:14:48.782Z,15.91
2018-08-11T03:15:48.766Z,15.95
2018-08-11T03:16:48.569Z,15.95
2018-08-11T03:17:48.589Z,16.00
2018-08-11T03:18:48.772Z,16.01
2018-08-11T03:19:48.787Z,15.90
2018-08-11T03:20:48.578Z,15.92
2018-08-11T03:21:48.577Z,15.79
2018-08-11T03:22:48.596Z,15.75
2018-08-11T03:23:48.592Z,15.77
2018-08-11T03:24:48.597Z,15.83
2018-08-11T03:25:48.789Z,15.72
2018-08-11T03:26:48.813Z,15.83
2018-08-11T03:27:48.626Z,15.79
2018-08-11T03:28:48.812Z,15.76
2018-08-11T03:29:48.621Z,15.64
2018-08-11T03:30:48.610Z,15.65
2018-08-11T03:31:48.602Z,15.61
2018-08-11T03:32:48.603Z,15.61
2018-08-11T03:33:48.610Z,15.73
2018-08-11T03:34:48.608Z,15.72
2018-08-11T03:35:48.835Z,15.62
2018-08-11T03:36:48.822Z,15.65
2018-08-11T03:37:48.617Z,15.72
2018-08-11T03:38:48.615Z,15.55
2018-08-11T03:39:48.632Z,15.44
2018-08-11T03:40:48.621Z,15.29
2018-08-11T03:41:48.632Z,15.28
2018-08-11T03:42:48.832Z,15.11
2018-08-11T03:43:48.627Z,15.21
2018-08-11T03:44:48.642Z,15.21
2018-08-11T03:45:48.628Z,15.14
2018-08-11T03:46:48.632Z,15.22
2018-08-11T03:47:48.643Z,15.18
2018-08-11T03:48:48.645Z,15.28
2018-08-11T03:49:48.637Z,15.29
2018-08-11T03:50:48.650Z,15.33
2018-08-11T03:51:48.652Z,15.22
2018-08-11T03:52:48.647Z,15.25
2018-08-11T03:53:48.659Z,15.28
2018-08-11T03:54:48.658Z,15.28
2018-08-11T03:55:48.852Z,15.25
2018-08-11T03:56:48.652Z,15.36
2018-08-11T03:57:48.663Z,15.37
2018-08-11T03:58:48.668Z,15.35
2018-08-11T03:59:48.695Z,15.40
2018-08-11T04:00:48.658Z,15.44
2018-08-11T04:01:48.673Z,15.52
2018-08-11T04:02:48.664Z,15.55
2018-08-11T04:03:48.666Z,15.62
2018-08-11T04:04:48.666Z,15.62
2018-08-11T04:05:48.870Z,15.62
2018-08-11T04:06:48.673Z,15.62
2018-08-11T04:07:48.673Z,15.73
2018-08-11T04:08:48.680Z,15.67
2018-08-11T04:09:48.682Z,15.64
2018-08-11T04:10:48.690Z,15.65
2018-08-11T04:11:48.713Z,15.67
2018-08-11T04:12:48.887Z,15.67
2018-08-11T04:13:48.687Z,15.73
2018-08-11T04:14:48.699Z,15.62
2018-08-11T04:15:48.690Z,15.68
2018-08-11T04:16:48.893Z,15.80
2018-08-11T04:17:48.725Z,15.75
2018-08-11T04:18:48.710Z,15.75
2018-08-11T04:19:48.740Z,15.92
2018-08-11T04:20:48.712Z,15.92
2018-08-11T04:21:48.905Z,16.04
2018-08-11T04:22:48.705Z,15.95
2018-08-11T04:23:48.938Z,16.04
2018-08-11T04:24:48.720Z,16.12
2018-08-11T04:25:48.728Z,16.10
2018-08-11T04:26:48.715Z,16.00
2018-08-11T04:27:48.716Z,16.21
2018-08-11T04:28:48.726Z,16.15
2018-08-11T04:29:48.741Z,16.16
2018-08-11T04:30:48.732Z,16.17
2018-08-11T04:31:48.942Z,16.20
2018-08-11T04:32:48.938Z,16.21
2018-08-11T04:33:48.743Z,16.16
2018-08-11T04:34:48.733Z,16.29
2018-08-11T04:35:48.937Z,16.20
2018-08-11T04:36:48.970Z,16.16
2018-08-11T04:37:48.749Z,16.17
2018-08-11T04:38:48.769Z,16.20
2018-08-11T04:39:48.743Z,16.12
2018-08-11T04:40:48.745Z,16.16
2018-08-11T04:41:48.960Z,16.21
2018-08-11T04:42:48.764Z,16.20
2018-08-11T04:43:48.750Z,16.32
2018-08-11T04:44:48.753Z,16.31
2018-08-11T04:45:48.754Z,16.24
2018-08-11T04:46:48.970Z,16.31
2018-08-11T04:47:48.758Z,16.42
2018-08-11T04:48:48.984Z,16.39
2018-08-11T04:49:48.774Z,16.35
2018-08-11T04:50:48.766Z,16.39
2018-08-11T04:51:48.777Z,16.43
2018-08-11T04:52:48.983Z,16.46
2018-08-11T04:53:48.775Z,16.42
2018-08-11T04:54:48.989Z,16.36
2018-08-11T04:55:48.977Z,16.39
2018-08-11T04:56:48.778Z,16.36
2018-08-11T04:57:48.782Z,16.46
2018-08-11T04:58:49.000Z,16.39
2018-08-11T04:59:48.785Z,16.31
2018-08-11T05:00:48.792Z,16.35
2018-08-11T05:01:49.004Z,16.29
2018-08-11T05:02:48.995Z,16.29
2018-08-11T05:03:48.796Z,16.33
2018-08-11T05:04:48.798Z,16.33
2018-08-11T05:05:48.799Z,16.36
2018-08-11T05:06:48.803Z,16.35
2018-08-11T05:07:48.805Z,16.12
2018-08-11T05:08:49.008Z,16.29
2018-08-11T05:09:48.836Z,16.16
2018-08-11T05:10:49.011Z,16.15
2018-08-11T05:11:48.811Z,16.20
2018-08-11T05:12:48.813Z,16.12
2018-08-11T05:13:48.830Z,16.05
2018-08-11T05:14:48.818Z,16.04
2018-08-11T05:15:48.830Z,16.00
2018-08-11T05:16:48.821Z,16.01
2018-08-11T05:17:48.826Z,15.86
2018-08-11T05:18:48.836Z,15.86
2018-08-11T05:19:48.898Z,15.91
2018-08-11T05:20:48.847Z,15.79
2018-08-11T05:21:48.846Z,15.79
2018-08-11T05:22:48.835Z,15.88
2018-08-11T05:23:48.845Z,15.86
2018-08-11T05:24:48.839Z,15.90
2018-08-11T05:25:48.840Z,15.90
2018-08-11T05:26:48.860Z,15.83
2018-08-11T05:27:48.847Z,15.75
2018-08-11T05:28:48.861Z,15.72
2018-08-11T05:29:48.849Z,15.75
2018-08-11T05:30:48.874Z,15.84
2018-08-11T05:31:48.852Z,15.91
2018-08-11T05:32:48.851Z,15.90
2018-08-11T05:33:48.853Z,15.83
2018-08-11T05:34:48.859Z,15.95
2018-08-11T05:35:48.868Z,15.95
2018-08-11T05:36:48.860Z,15.98
2018-08-11T05:37:49.063Z,15.95
2018-08-11T05:38:48.864Z,15.98
2018-08-11T05:39:48.866Z,16.00
2018-08-11T05:40:48.866Z,15.98
2018-08-11T05:41:48.873Z,15.95
2018-08-11T05:42:48.880Z,16.13
2018-08-11T05:43:49.083Z,16.02
2018-08-11T05:44:49.089Z,16.12
2018-08-11T05:45:49.075Z,16.17
2018-08-11T05:46:48.894Z,16.21
2018-08-11T05:47:48.891Z,16.16
2018-08-11T05:48:48.908Z,16.21
2018-08-11T05:49:48.906Z,16.23
2018-08-11T05:50:49.084Z,16.29
2018-08-11T05:51:48.899Z,16.24
2018-08-11T05:52:48.884Z,16.17
2018-08-11T05:53:48.898Z,16.31
2018-08-11T05:54:48.892Z,16.28
2018-08-11T05:55:48.918Z,16.28
2018-08-11T05:56:48.893Z,16.15
2018-08-11T05:57:48.909Z,16.24
2018-08-11T05:58:48.894Z,16.21
2018-08-11T05:59:48.896Z,16.13
2018-08-11T06:00:48.912Z,16.20
2018-08-11T06:01:49.105Z,16.17
2018-08-11T06:02:48.928Z,16.15
2018-08-11T06:03:49.159Z,16.16
2018-08-11T06:04:48.905Z,16.16
2018-08-11T06:05:49.108Z,16.26
2018-08-11T06:06:48.909Z,16.29
2018-08-11T06:07:48.909Z,16.21
2018-08-11T06:08:48.920Z,16.31
2018-08-11T06:09:48.910Z,16.36
2018-08-11T06:10:49.126Z,16.35
2018-08-11T06:11:48.914Z,16.47
2018-08-11T06:12:48.919Z,16.43
2018-08-11T06:13:48.916Z,16.41
2018-08-11T06:14:49.120Z,16.35
2018-08-11T06:15:48.918Z,16.42
2018-08-11T06:16:48.921Z,16.43
2018-08-11T06:17:48.926Z,16.54
2018-08-11T06:18:48.925Z,16.42
2018-08-11T06:19:48.926Z,16.50
2018-08-11T06:20:48.927Z,16.51
2018-08-11T06:21:49.141Z,16.53
2018-08-11T06:22:48.962Z,16.53
2018-08-11T06:23:49.146Z,16.51
2018-08-11T06:24:48.965Z,16.54
2018-08-11T06:25:48.938Z,16.39
2018-08-11T06:26:48.939Z,16.51
2018-08-11T06:27:48.940Z,16.51
2018-08-11T06:28:48.940Z,16.43
2018-08-11T06:29:48.943Z,16.54
2018-08-11T06:30:48.944Z,16.57
2018-08-11T06:31:49.034Z,16.58
2018-08-11T06:32:48.947Z,16.57
2018-08-11T06:33:48.948Z,16.66
2018-08-11T06:34:48.951Z,16.76
2018-08-11T06:35:48.973Z,16.79
2018-08-11T06:36:49.166Z,16.87
2018-08-11T06:37:48.956Z,16.94
2018-08-11T06:38:49.170Z,17.01
2018-08-11T06:39:49.160Z,17.02
2018-08-11T06:40:49.396Z,17.04
2018-08-11T06:41:48.963Z,17.04
2018-08-11T06:42:49.181Z,17.02
2018-08-11T06:43:48.979Z,16.97
2018-08-11T06:44:49.191Z,17.01
2018-08-11T06:45:48.967Z,17.02
2018-08-11T06:46:49.041Z,16.99
2018-08-11T06:47:49.173Z,17.05
2018-08-11T06:48:48.976Z,17.02
2018-08-11T06:49:49.189Z,17.09
2018-08-11T06:50:48.994Z,17.06
2018-08-11T06:51:49.178Z,17.14
2018-08-11T06:52:49.192Z,17.15
2018-08-11T06:53:48.983Z,17.24
2018-08-11T06:54:48.986Z,17.27
2018-08-11T06:55:49.000Z,17.30
2018-08-11T06:56:49.006Z,17.24
2018-08-11T06:57:49.004Z,17.26
2018-08-11T06:58:48.994Z,17.15
2018-08-11T06:59:48.996Z,17.16
2018-08-11T07:00:49.198Z,17.26
2018-08-11T07:01:48.994Z,17.14
2018-08-11T07:02:48.997Z,17.12
2018-08-11T07:03:49.003Z,17.06
2018-08-11T07:04:49.203Z,17.01
2018-08-11T07:05:49.013Z,17.09
2018-08-11T07:06:49.029Z,17.08
2018-08-11T07:07:49.021Z,17.12
2018-08-11T07:08:49.009Z,17.15
2018-08-11T07:09:49.291Z,17.38
2018-08-11T07:10:49.014Z,17.57
2018-08-11T07:11:49.013Z,17.65
2018-08-11T07:12:49.229Z,17.76
2018-08-11T07:13:49.219Z,17.86
2018-08-11T07:14:49.034Z,17.90
2018-08-11T07:15:49.018Z,17.68
2018-08-11T07:16:49.022Z,17.65
2018-08-11T07:17:49.225Z,17.64
2018-08-11T07:18:49.231Z,17.59
2018-08-11T07:19:49.029Z,17.56
2018-08-11T07:20:49.048Z,17.56
2018-08-11T07:21:49.041Z,17.38
2018-08-11T07:22:49.049Z,17.56
2018-08-11T07:23:49.043Z,17.56
2018-08-11T07:24:49.265Z,17.52
2018-08-11T07:25:49.241Z,17.63
2018-08-11T07:26:49.245Z,17.72
2018-08-11T07:27:49.042Z,17.76
2018-08-11T07:28:49.060Z,17.68
2018-08-11T07:29:49.061Z,17.67
2018-08-11T07:30:49.048Z,17.89
2018-08-11T07:31:49.266Z,17.94
2018-08-11T07:32:49.067Z,18.10
2018-08-11T07:33:49.273Z,18.19
2018-08-11T07:34:49.069Z,18.37
2018-08-11T07:35:49.058Z,18.29
2018-08-11T07:36:49.278Z,18.44
2018-08-11T07:37:49.264Z,18.43
2018-08-11T07:38:49.064Z,18.56
2018-08-11T07:39:49.069Z,18.55
2018-08-11T07:40:49.280Z,18.50
2018-08-11T07:41:49.083Z,18.63
2018-08-11T07:42:49.074Z,18.55
2018-08-11T07:43:49.291Z,18.56
2018-08-11T07:44:49.076Z,18.60
2018-08-11T07:45:49.280Z,18.65
2018-08-11T07:46:49.083Z,18.66
2018-08-11T07:47:49.088Z,18.83
2018-08-11T07:48:49.095Z,18.81
2018-08-11T07:49:49.087Z,18.75
2018-08-11T07:50:49.090Z,18.62
2018-08-11T07:51:49.104Z,18.53
2018-08-11T07:52:49.306Z,18.49
2018-08-11T07:53:49.100Z,18.56
2018-08-11T07:54:49.102Z,18.66
2018-08-11T07:55:49.150Z,18.70
2018-08-11T07:56:49.318Z,18.74
2018-08-11T07:57:49.109Z,18.77
2018-08-11T07:58:49.126Z,18.74
2018-08-11T07:59:49.122Z,18.65
2018-08-11T08:00:49.331Z,18.65
2018-08-11T08:01:49.128Z,18.62
2018-08-11T08:02:49.119Z,18.41
2018-08-11T08:03:49.345Z,18.47
2018-08-11T08:04:49.123Z,18.55
2018-08-11T08:05:49.141Z,18.68
2018-08-11T08:06:49.155Z,18.80
2018-08-11T08:07:49.132Z,18.84
2018-08-11T08:08:49.142Z,18.81
2018-08-11T08:09:49.161Z,18.92
2018-08-11T08:10:49.139Z,19.00
2018-08-11T08:11:49.340Z,19.08
2018-08-11T08:12:49.157Z,19.09
2018-08-11T08:13:49.235Z,19.21
2018-08-11T08:14:49.159Z,19.26
2018-08-11T08:15:49.151Z,19.47
2018-08-11T08:16:49.152Z,19.31
2018-08-11T08:17:49.170Z,19.21
2018-08-11T08:18:49.181Z,19.11
2018-08-11T08:19:49.186Z,19.08
2018-08-11T08:20:49.215Z,18.99
2018-08-11T08:21:49.195Z,18.93
2018-08-11T08:22:49.173Z,18.80
2018-08-11T08:23:49.184Z,18.90
2018-08-11T08:24:49.178Z,18.63
2018-08-11T08:25:49.191Z,18.58
2018-08-11T08:26:49.272Z,18.55
2018-08-11T08:27:49.186Z,18.63
2018-08-11T08:28:49.390Z,18.78
2018-08-11T08:29:49.193Z,18.92
2018-08-11T08:30:49.195Z,19.18
2018-08-11T08:31:49.208Z,19.36
2018-08-11T08:32:49.405Z,19.44
2018-08-11T08:33:49.515Z,19.45
2018-08-11T08:34:49.238Z,19.48
2018-08-11T08:35:49.413Z,19.48
2018-08-11T08:36:49.218Z,19.55
2018-08-11T08:37:49.434Z,19.62
2018-08-11T08:38:49.238Z,19.79
2018-08-11T08:39:49.457Z,19.77
2018-08-11T08:40:49.462Z,19.66
2018-08-11T08:41:49.458Z,19.74
2018-08-11T08:42:49.244Z,19.45
2018-08-11T08:43:49.250Z,19.55
2018-08-11T08:44:49.251Z,19.71
2018-08-11T08:45:49.261Z,19.63
2018-08-11T08:46:49.259Z,19.77
2018-08-11T08:47:49.465Z,19.92
2018-08-11T08:48:49.268Z,20.11
2018-08-11T08:49:49.303Z,20.55
2018-08-11T08:50:49.490Z,20.62
2018-08-11T08:51:49.290Z,20.18
2018-08-11T08:52:49.304Z,19.89
2018-08-11T08:53:49.509Z,20.06
2018-08-11T08:54:49.310Z,20.41
2018-08-11T08:55:49.299Z,21.07
2018-08-11T08:56:49.514Z,21.32
2018-08-11T08:57:49.312Z,20.96
2018-08-11T08:58:49.310Z,20.77
2018-08-11T08:59:49.326Z,21.14
2018-08-11T09:00:49.323Z,20.90
2018-08-11T09:01:49.537Z,20.66
2018-08-11T09:02:49.532Z,20.09
2018-08-11T09:03:49.331Z,20.02
2018-08-11T09:04:49.372Z,20.10
2018-08-11T09:05:49.542Z,20.34
2018-08-11T09:06:49.563Z,20.44
2018-08-11T09:07:49.349Z,20.81
2018-08-11T09:08:49.354Z,20.81
2018-08-11T09:09:49.374Z,21.00
2018-08-11T09:10:49.363Z,21.05
2018-08-11T09:11:49.379Z,20.77
2018-08-11T09:12:49.368Z,20.50
2018-08-11T09:13:49.371Z,20.50
2018-08-11T09:14:49.387Z,20.72
2018-08-11T09:15:49.376Z,20.87
2018-08-11T09:16:49.381Z,20.77
2018-08-11T09:17:49.586Z,20.52
2018-08-11T09:18:49.398Z,20.70
2018-08-11T09:19:49.389Z,20.81
2018-08-11T09:20:49.598Z,20.29
2018-08-11T09:21:49.398Z,19.84
2018-08-11T09:22:49.417Z,19.81
2018-08-11T09:23:49.407Z,20.06
2018-08-11T09:24:49.629Z,20.19
2018-08-11T09:25:49.415Z,20.13
2018-08-11T09:26:49.414Z,20.02
2018-08-11T09:27:49.443Z,19.99
2018-08-11T09:28:49.422Z,19.86
2018-08-11T09:29:49.432Z,19.71
2018-08-11T09:30:49.628Z,19.63
2018-08-11T09:31:49.428Z,19.52
2018-08-11T09:32:49.446Z,19.62
2018-08-11T09:33:49.433Z,19.86
2018-08-11T09:34:49.435Z,19.81
2018-08-11T09:35:49.440Z,19.76
2018-08-11T09:36:49.442Z,19.85
2018-08-11T09:37:49.660Z,19.74
2018-08-11T09:38:49.448Z,19.81
2018-08-11T09:39:49.653Z,19.82
2018-08-11T09:40:49.452Z,19.81
2018-08-11T09:41:49.472Z,19.81
2018-08-11T09:42:49.464Z,19.81
2018-08-11T09:43:49.464Z,19.73
2018-08-11T09:44:49.465Z,19.77
2018-08-11T09:45:49.693Z,19.74
2018-08-11T09:46:49.485Z,19.70
2018-08-11T09:47:49.472Z,19.82
2018-08-11T09:48:49.507Z,19.77
2018-08-11T09:49:49.480Z,19.70
2018-08-11T09:50:49.483Z,19.62
2018-08-11T09:51:49.487Z,19.74
2018-08-11T09:52:49.488Z,19.88
2018-08-11T09:53:49.493Z,20.18
2018-08-11T09:54:49.505Z,20.10
2018-08-11T09:55:49.517Z,20.10
2018-08-11T09:56:49.511Z,20.19
2018-08-11T09:57:49.519Z,20.29
2018-08-11T09:58:49.575Z,20.25
2018-08-11T09:59:49.508Z,20.02
2018-08-11T10:00:49.713Z,19.77
2018-08-11T10:01:49.517Z,19.76
2018-08-11T10:02:49.532Z,19.59
2018-08-11T10:03:49.533Z,19.55
2018-08-11T10:04:49.523Z,19.54
2018-08-11T10:05:49.529Z,19.62
2018-08-11T10:06:49.542Z,19.76
2018-08-11T10:07:49.530Z,19.77
2018-08-11T10:08:49.745Z,19.96
2018-08-11T10:09:49.548Z,20.10
2018-08-11T10:10:49.541Z,20.25
2018-08-11T10:11:49.557Z,20.25
2018-08-11T10:12:49.748Z,20.26
2018-08-11T10:13:49.749Z,20.25
2018-08-11T10:14:49.551Z,20.29
2018-08-11T10:15:49.554Z,20.25
2018-08-11T10:16:49.583Z,20.25
2018-08-11T10:17:49.761Z,20.14
2018-08-11T10:18:49.561Z,20.02
2018-08-11T10:19:49.588Z,20.06
2018-08-11T10:20:49.579Z,20.00
2018-08-11T10:21:49.571Z,20.03
2018-08-11T10:22:49.575Z,19.86
2018-08-11T10:23:49.576Z,19.85
2018-08-11T10:24:49.579Z,19.81
2018-08-11T10:25:49.783Z,19.76
2018-08-11T10:26:49.594Z,19.76
2018-08-11T10:27:49.589Z,19.64
2018-08-11T10:28:49.591Z,19.69
2018-08-11T10:29:49.592Z,19.66
2018-08-11T10:30:49.595Z,19.59
2018-08-11T10:31:49.817Z,19.63
2018-08-11T10:32:49.603Z,19.54
2018-08-11T10:33:49.617Z,19.51
2018-08-11T10:34:49.624Z,19.47
2018-08-11T10:35:49.626Z,19.48
2018-08-11T10:36:49.642Z,19.63
2018-08-11T10:37:49.617Z,19.82
2018-08-11T10:38:49.638Z,19.86
2018-08-11T10:39:49.647Z,20.06
2018-08-11T10:40:49.657Z,20.21
2018-08-11T10:41:49.830Z,20.25
2018-08-11T10:42:49.841Z,20.21
2018-08-11T10:43:49.659Z,20.22
2018-08-11T10:44:49.686Z,20.24
2018-08-11T10:45:49.843Z,20.22
2018-08-11T10:46:49.657Z,20.21
2018-08-11T10:47:49.645Z,20.31
2018-08-11T10:48:49.853Z,20.37
2018-08-11T10:49:49.853Z,20.44
2018-08-11T10:50:49.653Z,20.44
2018-08-11T10:51:49.672Z,20.51
2018-08-11T10:52:49.674Z,20.65
2018-08-11T10:53:49.676Z,20.78
2018-08-11T10:54:49.866Z,20.95
2018-08-11T10:55:49.721Z,20.97
2018-08-11T10:56:49.686Z,21.00
2018-08-11T10:57:49.876Z,20.92
2018-08-11T10:58:49.692Z,20.93
2018-08-11T10:59:49.694Z,20.97
2018-08-11T11:00:49.684Z,20.95
2018-08-11T11:01:49.686Z,20.92
2018-08-11T11:02:49.689Z,20.95
2018-08-11T11:03:49.691Z,20.87
2018-08-11T11:04:49.695Z,20.81
2018-08-11T11:05:49.708Z,20.80
2018-08-11T11:06:49.715Z,20.82
2018-08-11T11:07:49.714Z,20.82
2018-08-11T11:08:49.718Z,20.82
2018-08-11T11:09:49.710Z,20.85
2018-08-11T11:10:49.917Z,20.96
2018-08-11T11:11:49.719Z,20.93
2018-08-11T11:12:49.722Z,20.81
2018-08-11T11:13:49.936Z,20.85
2018-08-11T11:14:49.727Z,20.92
2018-08-11T11:15:49.729Z,20.97
2018-08-11T11:16:49.732Z,20.97
2018-08-11T11:17:49.745Z,21.02
2018-08-11T11:18:49.759Z,21.15
2018-08-11T11:19:49.743Z,21.24
2018-08-11T11:20:49.822Z,21.40
2018-08-11T11:21:49.763Z,21.58
2018-08-11T11:22:49.766Z,21.62
2018-08-11T11:23:49.757Z,21.73
2018-08-11T11:24:49.772Z,21.76
2018-08-11T11:25:49.764Z,21.85
2018-08-11T11:26:49.768Z,21.89
2018-08-11T11:27:49.769Z,21.95
2018-08-11T11:28:49.774Z,21.95
2018-08-11T11:29:49.787Z,21.93
2018-08-11T11:30:49.810Z,21.91
2018-08-11T11:31:49.784Z,21.91
2018-08-11T11:32:49.998Z,21.89
2018-08-11T11:33:49.992Z,21.80
2018-08-11T11:34:49.821Z,21.82
2018-08-11T11:35:49.795Z,21.82
2018-08-11T11:36:49.813Z,21.77
2018-08-11T11:37:49.806Z,21.85
2018-08-11T11:38:49.807Z,21.92
2018-08-11T11:39:49.812Z,21.96
2018-08-11T11:40:49.824Z,21.95
2018-08-11T11:41:50.032Z,21.83
2018-08-11T11:42:50.025Z,21.80
2018-08-11T11:43:50.026Z,21.70
2018-08-11T11:44:49.840Z,21.58
2018-08-11T11:45:49.842Z,21.60
2018-08-11T11:46:49.853Z,21.60
2018-08-11T11:47:49.841Z,21.57
2018-08-11T11:48:50.047Z,21.54
2018-08-11T11:49:49.859Z,21.55
2018-08-11T11:50:50.054Z,21.45
2018-08-11T11:51:49.856Z,21.35
2018-08-11T11:52:49.859Z,21.25
2018-08-11T11:53:49.891Z,21.18
2018-08-11T11:54:50.089Z,21.09
2018-08-11T11:55:49.879Z,20.96
2018-08-11T11:56:49.871Z,20.95
2018-08-11T11:57:49.876Z,20.90
2018-08-11T11:58:49.895Z,20.99
2018-08-11T11:59:49.931Z,20.96
2018-08-11T12:00:49.896Z,20.99
2018-08-11T12:01:50.095Z,21.03
2018-08-11T12:02:49.892Z,21.02
2018-08-11T12:03:50.096Z,21.18
2018-08-11T12:04:49.928Z,21.25
2018-08-11T12:05:49.946Z,21.33
2018-08-11T12:06:50.113Z,21.45
2018-08-11T12:07:49.907Z,21.48
2018-08-11T12:08:49.911Z,21.61
2018-08-11T12:09:49.915Z,21.66
2018-08-11T12:10:49.920Z,21.70
2018-08-11T12:11:49.920Z,21.69
2018-08-11T12:12:50.129Z,21.66
2018-08-11T12:13:49.928Z,21.67
2018-08-11T12:14:49.944Z,21.50
2018-08-11T12:15:49.962Z,21.54
2018-08-11T12:16:49.940Z,21.54
2018-08-11T12:17:49.956Z,21.51
2018-08-11T12:18:49.946Z,21.46
2018-08-11T12:19:50.155Z,21.40
2018-08-11T12:20:49.967Z,21.42
2018-08-11T12:21:49.956Z,21.37
2018-08-11T12:22:49.992Z,21.33
2018-08-11T12:23:49.974Z,21.36
2018-08-11T12:24:49.980Z,21.32
2018-08-11T12:25:49.970Z,21.42
2018-08-11T12:26:49.974Z,21.36
2018-08-11T12:27:50.179Z,21.32
2018-08-11T12:28:49.980Z,21.18
2018-08-11T12:29:50.185Z,21.29
2018-08-11T12:30:49.988Z,21.22
2018-08-11T12:31:50.194Z,21.21
2018-08-11T12:32:50.196Z,21.20
2018-08-11T12:33:50.200Z,21.15
2018-08-11T12:34:50.000Z,20.99
2018-08-11T12:35:50.004Z,20.92
2018-08-11T12:36:50.028Z,20.80
2018-08-11T12:37:50.257Z,20.84
2018-08-11T12:38:50.016Z,20.77
2018-08-11T12:39:50.220Z,20.74
2018-08-11T12:40:50.034Z,20.80
2018-08-11T12:41:50.236Z,20.99
2018-08-11T12:42:50.039Z,21.30
2018-08-11T12:43:50.032Z,21.39
2018-08-11T12:44:50.290Z,21.52
2018-08-11T12:45:50.244Z,21.64
2018-08-11T12:46:50.042Z,21.77
2018-08-11T12:47:50.043Z,21.80
2018-08-11T12:48:50.257Z,21.62
2018-08-11T12:49:50.050Z,21.54
2018-08-11T12:50:50.111Z,21.35
2018-08-11T12:51:50.258Z,21.29
2018-08-11T12:52:50.059Z,21.27